createdAt,value
2023-02-05T00:00:05.228Z,9.52
2023-02-05T00:02:33.267Z,9.53
2023-02-05T00:05:01.135Z,9.58
2023-02-05T00:07:28.694Z,9.74
2023-02-05T00:09:56.084Z,9.71
2023-02-05T00:12:23.637Z,9.61
2023-02-05T00:14:51.062Z,9.68
2023-02-05T00:17:18.495Z,9.63
2023-02-05T00:19:45.908Z,9.67
2023-02-05T00:22:13.472Z,9.76
2023-02-05T00:24:40.936Z,9.72
2023-02-05T00:27:10.207Z,9.60
2023-02-05T00:29:37.686Z,9.47
2023-02-05T00:32:05.252Z,9.35
2023-02-05T00:34:32.801Z,9.40
2023-02-05T00:37:00.272Z,9.38
2023-02-05T00:39:27.541Z,9.38
2023-02-05T00:41:54.709Z,9.34
2023-02-05T00:44:22.026Z,9.35
2023-02-05T00:46:49.315Z,9.34
2023-02-05T00:49:16.599Z,9.30
2023-02-05T00:51:44.112Z,9.29
2023-02-05T00:54:11.702Z,9.31
2023-02-05T00:56:39.281Z,9.36
2023-02-05T00:59:06.667Z,9.32
2023-02-05T01:01:34.466Z,9.34
2023-02-05T01:04:01.952Z,9.33
2023-02-05T01:06:29.391Z,9.33
2023-02-05T01:08:56.903Z,9.34
2023-02-05T01:11:24.435Z,9.34
2023-02-05T01:13:51.697Z,9.29
2023-02-05T01:16:19.220Z,9.30
2023-02-05T01:18:46.651Z,9.33
2023-02-05T01:21:14.286Z,9.33
2023-02-05T01:23:41.711Z,9.32
2023-02-05T01:26:09.289Z,9.28
2023-02-05T01:28:36.745Z,9.28
2023-02-05T01:31:04.456Z,9.30
2023-02-05T01:33:32.121Z,9.30
2023-02-05T01:35:59.604Z,9.31
2023-02-05T01:38:26.897Z,9.32
2023-02-05T01:40:54.269Z,9.30
2023-02-05T01:43:21.583Z,9.29
2023-02-05T01:45:57.824Z,9.25
2023-02-05T01:48:29.785Z,9.27
2023-02-05T01:51:01.303Z,9.26
2023-02-05T01:53:32.694Z,9.23
2023-02-05T01:56:03.577Z,9.23
2023-02-05T01:58:35.990Z,9.26
2023-02-05T02:01:03.602Z,9.31
2023-02-05T02:03:32.451Z,9.30
2023-02-05T02:06:00.491Z,9.25
2023-02-05T02:08:28.174Z,9.21
2023-02-05T02:10:58.380Z,9.25
2023-02-05T02:13:28.240Z,9.24
2023-02-05T02:15:57.081Z,9.31
2023-02-05T02:18:26.462Z,9.38
2023-02-05T02:21:31.654Z,9.39
2023-02-05T02:24:02.307Z,9.29
2023-02-05T02:26:40.864Z,9.33
2023-02-05T02:29:18.300Z,9.33
2023-02-05T02:31:58.902Z,9.44
2023-02-05T02:35:04.594Z,9.50
2023-02-05T02:37:48.159Z,9.35
2023-02-05T02:40:23.840Z,9.25
2023-02-05T02:43:22.009Z,9.30
2023-02-05T02:45:53.633Z,9.21
2023-02-05T02:48:25.398Z,9.25
2023-02-05T02:50:54.121Z,9.37
2023-02-05T02:53:26.840Z,9.26
2023-02-05T02:55:57.679Z,9.29
2023-02-05T02:58:40.478Z,9.23
2023-02-05T03:01:10.275Z,9.12
2023-02-05T03:03:44.758Z,9.08
2023-02-05T03:06:14.535Z,9.09
2023-02-05T03:09:04.676Z,9.18
2023-02-05T03:11:33.940Z,9.22
2023-02-05T03:14:01.794Z,9.14
2023-02-05T03:16:33.425Z,9.12
2023-02-05T03:19:02.973Z,9.10
2023-02-05T03:21:40.539Z,9.08
2023-02-05T03:24:08.509Z,9.13
2023-02-05T03:26:36.729Z,9.16
2023-02-05T03:29:33.305Z,9.11
2023-02-05T03:32:23.623Z,9.15
2023-02-05T03:35:13.275Z,9.10
2023-02-05T03:38:03.198Z,9.23
2023-02-05T03:40:48.211Z,9.09
2023-02-05T03:43:33.766Z,9.15
2023-02-05T03:46:02.046Z,9.11
2023-02-05T03:48:36.219Z,9.08
2023-02-05T03:51:22.812Z,9.13
2023-02-05T03:54:04.538Z,9.07
2023-02-05T03:56:55.559Z,9.13
2023-02-05T03:59:26.220Z,9.18
2023-02-05T04:01:55.048Z,9.08
2023-02-05T04:04:23.071Z,9.13
2023-02-05T04:06:53.545Z,9.14
2023-02-05T04:09:21.277Z,9.27
2023-02-05T04:11:48.948Z,9.24
2023-02-05T04:14:19.242Z,9.12
2023-02-05T04:16:46.788Z,9.14
2023-02-05T04:19:14.177Z,9.14
2023-02-05T04:21:41.720Z,9.31
2023-02-05T04:24:09.252Z,9.48
2023-02-05T04:26:36.920Z,9.31
2023-02-05T04:29:07.055Z,9.14
2023-02-05T04:31:41.430Z,9.17
2023-02-05T04:34:09.015Z,9.09
2023-02-05T04:36:38.692Z,9.03
2023-02-05T04:39:06.262Z,9.05
2023-02-05T04:41:33.543Z,9.04
2023-02-05T04:44:00.904Z,8.97
2023-02-05T04:46:28.315Z,9.06
2023-02-05T04:48:55.882Z,9.05
2023-02-05T04:51:23.352Z,8.95
2023-02-05T04:53:50.778Z,8.95
2023-02-05T04:56:18.590Z,8.96
2023-02-05T04:58:46.749Z,8.96
2023-02-05T05:01:17.091Z,8.97
2023-02-05T05:03:45.428Z,8.94
2023-02-05T05:06:13.634Z,9.01
2023-02-05T05:08:43.531Z,8.95
2023-02-05T05:11:17.688Z,8.91
2023-02-05T05:13:46.111Z,8.96
2023-02-05T05:16:13.768Z,8.97
2023-02-05T05:18:42.025Z,8.88
2023-02-05T05:21:10.381Z,8.91
2023-02-05T05:23:38.716Z,8.91
2023-02-05T05:26:11.953Z,8.97
2023-02-05T05:28:39.834Z,9.08
2023-02-05T05:31:09.645Z,9.21
2023-02-05T05:33:38.075Z,9.12
2023-02-05T05:36:06.913Z,9.07
2023-02-05T05:38:35.204Z,8.97
2023-02-05T05:41:21.071Z,8.97
2023-02-05T05:43:49.032Z,8.98
2023-02-05T05:46:23.015Z,8.99
2023-02-05T05:48:55.913Z,9.02
2023-02-05T05:51:25.378Z,8.98
2023-02-05T05:53:53.026Z,9.00
2023-02-05T05:56:21.629Z,8.99
2023-02-05T05:58:49.631Z,8.99
2023-02-05T06:01:19.255Z,8.98
2023-02-05T06:03:46.735Z,9.00
2023-02-05T06:06:14.284Z,9.06
2023-02-05T06:08:41.482Z,9.05
2023-02-05T06:11:08.990Z,8.98
2023-02-05T06:13:36.475Z,8.99
2023-02-05T06:16:04.722Z,8.98
2023-02-05T06:18:32.128Z,8.98
2023-02-05T06:20:59.814Z,9.03
2023-02-05T06:23:27.299Z,9.01
2023-02-05T06:25:54.775Z,9.05
2023-02-05T06:28:22.084Z,9.03
2023-02-05T06:30:49.649Z,9.08
2023-02-05T06:33:17.169Z,9.04
2023-02-05T06:35:44.604Z,9.07
2023-02-05T06:38:11.868Z,9.04
2023-02-05T06:40:39.146Z,9.02
2023-02-05T06:43:06.566Z,9.09
2023-02-05T06:45:34.177Z,9.03
2023-02-05T06:48:01.854Z,9.02
2023-02-05T06:50:29.330Z,9.03
2023-02-05T06:52:56.834Z,9.03
2023-02-05T06:55:24.486Z,9.07
2023-02-05T06:57:51.984Z,9.05
2023-02-05T07:00:19.654Z,9.06
2023-02-05T07:02:47.213Z,9.04
2023-02-05T07:05:14.867Z,9.06
2023-02-05T07:07:42.467Z,9.06
2023-02-05T07:10:10.244Z,9.06
2023-02-05T07:12:37.684Z,9.08
2023-02-05T07:15:05.470Z,9.09
2023-02-05T07:17:32.895Z,9.08
2023-02-05T07:20:00.395Z,9.08
2023-02-05T07:22:27.856Z,9.11
2023-02-05T07:24:55.575Z,9.11
2023-02-05T07:27:23.027Z,9.18
2023-02-05T07:29:50.541Z,9.09
2023-02-05T07:32:17.980Z,9.09
2023-02-05T07:34:45.552Z,9.07
2023-02-05T07:37:15.956Z,9.04
2023-02-05T07:39:43.465Z,9.05
2023-02-05T07:42:12.394Z,9.03
2023-02-05T07:44:48.714Z,9.03
2023-02-05T07:47:16.355Z,9.06
2023-02-05T07:49:43.718Z,9.09
2023-02-05T07:52:11.020Z,9.15
2023-02-05T07:54:38.428Z,9.22
2023-02-05T07:57:07.005Z,9.21
2023-02-05T07:59:34.692Z,9.22
2023-02-05T08:02:02.414Z,9.21
2023-02-05T08:04:30.182Z,9.20
2023-02-05T08:06:57.752Z,9.23
2023-02-05T08:09:25.165Z,9.24
2023-02-05T08:11:52.705Z,9.23
2023-02-05T08:14:20.166Z,9.19
2023-02-05T08:16:47.647Z,9.18
2023-02-05T08:19:16.047Z,9.23
2023-02-05T08:21:44.494Z,9.24
2023-02-05T08:24:12.152Z,9.23
2023-02-05T08:26:40.427Z,9.28
2023-02-05T08:29:08.542Z,9.30
2023-02-05T08:31:36.665Z,9.34
2023-02-05T08:34:05.172Z,9.36
2023-02-05T08:36:32.903Z,9.37
2023-02-05T08:39:00.219Z,9.38
2023-02-05T08:41:27.767Z,9.42
2023-02-05T08:43:55.219Z,9.42
2023-02-05T08:46:28.182Z,9.44
2023-02-05T08:48:59.307Z,9.46
2023-02-05T08:51:26.837Z,9.48
2023-02-05T08:53:55.834Z,9.50
2023-02-05T08:56:23.337Z,9.52
2023-02-05T08:58:50.810Z,9.57
2023-02-05T09:01:18.455Z,9.62
2023-02-05T09:03:46.361Z,9.65
2023-02-05T09:06:16.395Z,9.72
2023-02-05T09:08:43.963Z,9.78
2023-02-05T09:11:13.559Z,9.85
2023-02-05T09:13:41.336Z,9.95
2023-02-05T09:16:11.314Z,10.08
2023-02-05T09:18:39.337Z,10.32
2023-02-05T09:21:08.944Z,10.85
2023-02-05T09:23:37.705Z,11.21
2023-02-05T09:26:05.969Z,11.45
2023-02-05T09:28:33.443Z,11.58
2023-02-05T09:31:04.515Z,11.66
2023-02-05T09:33:32.112Z,11.76
2023-02-05T09:36:05.599Z,11.70
2023-02-05T09:38:33.380Z,11.68
2023-02-05T09:41:07.576Z,11.80
2023-02-05T09:43:44.134Z,11.79
2023-02-05T09:46:26.019Z,11.79
2023-02-05T09:49:02.562Z,11.83
2023-02-05T09:51:41.783Z,11.73
2023-02-05T09:54:18.472Z,11.57
2023-02-05T09:56:48.388Z,11.42
2023-02-05T09:59:19.740Z,11.23
2023-02-05T10:01:52.120Z,11.16
2023-02-05T10:04:19.992Z,11.07
2023-02-05T10:07:05.550Z,11.17
2023-02-05T10:09:48.186Z,11.24
2023-02-05T10:12:50.830Z,11.27
2023-02-05T10:15:45.789Z,11.19
2023-02-05T10:18:30.242Z,11.34
2023-02-05T10:21:22.561Z,11.48
2023-02-05T10:23:50.089Z,11.56
2023-02-05T10:26:20.778Z,11.61
2023-02-05T10:31:21.465Z,11.75
2023-02-05T10:33:58.762Z,11.57
2023-02-05T10:36:26.904Z,11.58
2023-02-05T10:38:56.875Z,11.63
2023-02-05T10:41:34.175Z,11.77
2023-02-05T10:44:12.499Z,11.75
2023-02-05T10:46:41.176Z,11.57
2023-02-05T10:49:12.694Z,11.54
2023-02-05T10:51:42.745Z,11.58
2023-02-05T10:54:32.068Z,11.30
2023-02-05T10:57:00.841Z,11.11
2023-02-05T10:59:31.231Z,11.03
2023-02-05T11:02:09.806Z,10.99
2023-02-05T11:04:52.132Z,11.02
2023-02-05T11:07:35.771Z,10.73
2023-02-05T11:10:26.828Z,10.73
2023-02-05T11:12:58.628Z,10.85
2023-02-05T11:15:28.612Z,10.95
2023-02-05T11:18:00.713Z,10.92
2023-02-05T11:20:38.942Z,11.05
2023-02-05T11:23:20.004Z,11.08
2023-02-05T11:25:59.493Z,11.57
2023-02-05T11:28:28.286Z,11.90
2023-02-05T11:30:57.341Z,12.08
2023-02-05T11:33:28.378Z,12.37
2023-02-05T11:36:05.190Z,12.45
2023-02-05T11:38:32.777Z,12.75
2023-02-05T11:41:04.501Z,13.20
2023-02-05T11:43:38.245Z,12.84
2023-02-05T11:46:10.032Z,12.65
2023-02-05T11:48:39.561Z,12.35
2023-02-05T11:51:09.614Z,12.17
2023-02-05T11:53:38.820Z,12.03
2023-02-05T11:56:12.229Z,11.71
2023-02-05T11:58:39.813Z,11.91
2023-02-05T12:01:24.035Z,12.23
2023-02-05T12:04:07.457Z,12.59
2023-02-05T12:06:42.631Z,12.91
2023-02-05T12:09:19.496Z,12.87
2023-02-05T12:12:04.314Z,12.97
2023-02-05T12:14:53.922Z,13.26
2023-02-05T12:17:39.934Z,13.29
2023-02-05T12:20:10.186Z,13.27
2023-02-05T12:23:07.856Z,13.13
2023-02-05T12:25:47.658Z,12.97
2023-02-05T12:28:37.280Z,12.99
2023-02-05T12:31:22.414Z,12.90
2023-02-05T12:34:01.554Z,13.21
2023-02-05T12:37:05.855Z,13.42
2023-02-05T12:39:43.329Z,13.67
2023-02-05T12:42:20.348Z,13.72
2023-02-05T12:45:07.807Z,13.52
2023-02-05T12:47:53.799Z,13.46
2023-02-05T12:50:35.999Z,13.57
2023-02-05T12:53:19.971Z,13.48
2023-02-05T12:55:56.503Z,13.12
2023-02-05T12:58:34.344Z,12.91
2023-02-05T13:01:08.948Z,12.63
2023-02-05T13:04:01.092Z,12.51
2023-02-05T13:06:43.937Z,12.09
2023-02-05T13:09:29.085Z,12.15
2023-02-05T13:12:02.224Z,12.25
2023-02-05T13:14:56.853Z,12.31
2023-02-05T13:17:28.394Z,12.25
2023-02-05T13:20:00.658Z,12.16
2023-02-05T13:23:27.346Z,12.20
2023-02-05T13:26:14.821Z,12.05
2023-02-05T13:28:47.706Z,12.08
2023-02-05T13:31:25.823Z,12.20
2023-02-05T13:33:56.634Z,12.18
2023-02-05T13:36:24.110Z,12.05
2023-02-05T13:39:03.589Z,12.12
2023-02-05T13:41:31.004Z,12.14
2023-02-05T13:44:16.331Z,12.15
2023-02-05T13:46:46.862Z,12.25
2023-02-05T13:49:58.893Z,12.44
2023-02-05T13:52:54.208Z,12.60
2023-02-05T13:55:53.122Z,12.82
2023-02-05T13:58:32.517Z,12.89
2023-02-05T14:01:02.592Z,12.75
2023-02-05T14:03:39.731Z,12.73
2023-02-05T14:06:27.113Z,12.68
2023-02-05T14:09:19.525Z,12.42
2023-02-05T14:12:03.333Z,12.45
2023-02-05T14:14:32.050Z,12.41
2023-02-05T14:17:00.917Z,12.52
2023-02-05T14:19:46.903Z,12.68
2023-02-05T14:22:40.150Z,12.67
2023-02-05T14:25:39.011Z,12.74
2023-02-05T14:28:19.093Z,12.62
2023-02-05T14:31:00.015Z,12.65
2023-02-05T14:33:30.467Z,12.66
2023-02-05T14:35:59.205Z,12.74
2023-02-05T14:38:33.349Z,12.66
2023-02-05T14:41:15.237Z,12.74
2023-02-05T14:43:46.675Z,12.75
2023-02-05T14:46:33.102Z,12.68
2023-02-05T14:49:03.750Z,12.62
2023-02-05T14:51:38.939Z,12.39
2023-02-05T14:54:23.345Z,12.45
2023-02-05T14:57:09.932Z,12.34
2023-02-05T15:00:03.012Z,12.07
2023-02-05T15:03:21.588Z,12.09
2023-02-05T15:06:00.031Z,12.19
2023-02-05T15:08:44.337Z,12.19
2023-02-05T15:11:15.915Z,12.21
2023-02-05T15:14:18.802Z,12.25
2023-02-05T15:17:14.094Z,12.27
2023-02-05T15:19:50.100Z,12.36
2023-02-05T15:22:35.515Z,12.12
2023-02-05T15:25:09.024Z,12.07
2023-02-05T15:27:47.366Z,12.08
2023-02-05T15:30:20.695Z,11.89
2023-02-05T15:32:59.203Z,11.85
2023-02-05T15:35:30.669Z,11.86
2023-02-05T15:38:10.041Z,11.93
2023-02-05T15:40:41.693Z,11.93
2023-02-05T15:43:38.401Z,11.73
2023-02-05T15:46:08.892Z,11.71
2023-02-05T15:48:39.842Z,11.70
2023-02-05T15:51:28.358Z,11.77
2023-02-05T15:53:58.222Z,11.72
2023-02-05T15:56:41.409Z,11.52
2023-02-05T15:59:17.490Z,11.29
2023-02-05T16:01:49.957Z,11.31
2023-02-05T16:04:27.745Z,11.29
2023-02-05T16:06:55.229Z,11.19
2023-02-05T16:09:25.097Z,11.14
2023-02-05T16:11:52.875Z,11.20
2023-02-05T16:14:23.042Z,11.15
2023-02-05T16:16:57.474Z,11.07
2023-02-05T16:19:30.546Z,11.14
2023-02-05T16:22:24.369Z,10.99
2023-02-05T16:24:57.725Z,10.79
2023-02-05T16:27:43.264Z,10.90
2023-02-05T16:30:19.922Z,10.82
2023-02-05T16:32:48.573Z,10.81
2023-02-05T16:35:27.678Z,10.84
2023-02-05T16:37:55.928Z,10.83
2023-02-05T16:40:37.071Z,10.82
2023-02-05T16:43:23.026Z,10.86
2023-02-05T16:46:08.904Z,10.89
2023-02-05T16:48:45.430Z,10.71
2023-02-05T16:51:45.158Z,10.68
2023-02-05T16:54:13.507Z,10.57
2023-02-05T16:57:07.553Z,10.53
2023-02-05T16:59:38.746Z,10.39
2023-02-05T17:02:06.557Z,10.21
2023-02-05T17:04:37.796Z,10.15
2023-02-05T17:07:17.444Z,10.21
2023-02-05T17:09:45.146Z,10.21
2023-02-05T17:12:38.739Z,10.18
2023-02-05T17:15:34.180Z,10.07
2023-02-05T17:18:24.584Z,10.01
2023-02-05T17:20:52.140Z,9.77
2023-02-05T17:23:19.560Z,9.74
2023-02-05T17:25:47.044Z,9.66
2023-02-05T17:28:16.589Z,9.62
2023-02-05T17:30:45.561Z,9.50
2023-02-05T17:33:17.678Z,9.52
2023-02-05T17:35:45.253Z,9.46
2023-02-05T17:38:12.749Z,9.47
2023-02-05T17:40:40.711Z,9.49
2023-02-05T17:43:08.223Z,9.50
2023-02-05T17:45:39.687Z,9.41
2023-02-05T17:48:08.427Z,9.33
2023-02-05T17:50:36.902Z,9.28
2023-02-05T17:53:04.901Z,9.19
2023-02-05T17:55:32.869Z,9.06
2023-02-05T17:58:00.369Z,9.07
2023-02-05T18:00:28.406Z,9.07
2023-02-05T18:02:55.781Z,9.00
2023-02-05T18:05:23.244Z,8.81
2023-02-05T18:07:56.940Z,8.87
2023-02-05T18:10:28.278Z,8.85
2023-02-05T18:12:56.284Z,8.88
2023-02-05T18:15:25.143Z,8.73
2023-02-05T18:17:53.555Z,8.82
2023-02-05T18:20:21.390Z,8.78
2023-02-05T18:22:49.446Z,8.66
2023-02-05T18:25:17.111Z,8.66
2023-02-05T18:27:44.984Z,8.71
2023-02-05T18:30:13.218Z,8.61
2023-02-05T18:32:41.008Z,8.50
2023-02-05T18:35:12.636Z,8.47
2023-02-05T18:37:44.181Z,8.35
2023-02-05T18:40:13.807Z,8.20
2023-02-05T18:42:41.726Z,8.28
2023-02-05T18:45:09.896Z,8.20
2023-02-05T18:47:37.338Z,8.09
2023-02-05T18:50:05.632Z,8.11
2023-02-05T18:52:35.745Z,7.97
2023-02-05T18:55:03.846Z,8.10
2023-02-05T18:57:31.236Z,8.03
2023-02-05T18:59:59.144Z,7.93
2023-02-05T19:02:26.548Z,7.73
2023-02-05T19:04:55.912Z,7.81
2023-02-05T19:07:24.914Z,7.88
2023-02-05T19:09:53.147Z,7.97
2023-02-05T19:12:20.580Z,8.14
2023-02-05T19:14:49.964Z,8.23
2023-02-05T19:17:17.438Z,7.90
2023-02-05T19:19:45.016Z,7.85
2023-02-05T19:22:12.354Z,7.84
2023-02-05T19:24:40.570Z,7.87
2023-02-05T19:27:08.033Z,7.78
2023-02-05T19:29:39.757Z,7.66
2023-02-05T19:32:08.313Z,7.73
2023-02-05T19:34:38.554Z,7.70
2023-02-05T19:37:06.290Z,7.49
2023-02-05T19:39:33.647Z,7.63
2023-02-05T19:42:01.013Z,7.56
2023-02-05T19:44:30.954Z,7.71
2023-02-05T19:46:58.506Z,7.55
2023-02-05T19:49:26.033Z,7.42
2023-02-05T19:51:55.353Z,7.31
2023-02-05T19:54:23.385Z,7.24
2023-02-05T19:56:51.605Z,7.30
2023-02-05T19:59:19.516Z,7.12
2023-02-05T20:01:47.735Z,7.13
2023-02-05T20:04:24.946Z,7.05
2023-02-05T20:06:56.209Z,6.96
2023-02-05T20:09:24.004Z,7.00
2023-02-05T20:11:53.648Z,6.92
2023-02-05T20:14:22.140Z,6.87
2023-02-05T20:16:50.230Z,6.84
2023-02-05T20:19:18.745Z,6.74
2023-02-05T20:21:47.130Z,6.72
2023-02-05T20:24:16.474Z,6.60
2023-02-05T20:26:47.871Z,6.61
2023-02-05T20:29:35.990Z,6.54
2023-02-05T20:32:04.081Z,6.69
2023-02-05T20:34:35.666Z,6.51
2023-02-05T20:37:06.919Z,6.46
2023-02-05T20:39:35.377Z,6.58
2023-02-05T20:42:03.296Z,6.47
2023-02-05T20:44:33.981Z,6.39
2023-02-05T20:47:02.955Z,6.37
2023-02-05T20:49:30.537Z,6.50
2023-02-05T20:51:58.160Z,6.59
2023-02-05T20:54:25.714Z,6.58
2023-02-05T20:56:59.905Z,6.54
2023-02-05T20:59:31.489Z,6.48
2023-02-05T21:01:59.462Z,6.42
2023-02-05T21:04:27.158Z,6.22
2023-02-05T21:06:55.091Z,6.19
2023-02-05T21:09:22.816Z,6.12
2023-02-05T21:11:55.355Z,6.23
2023-02-05T21:14:23.860Z,5.99
2023-02-05T21:16:51.535Z,5.96
2023-02-05T21:19:19.512Z,5.92
2023-02-05T21:21:47.041Z,5.87
2023-02-05T21:24:16.308Z,5.87
2023-02-05T21:26:46.320Z,5.85
2023-02-05T21:29:17.270Z,5.80
2023-02-05T21:31:50.100Z,5.77
2023-02-05T21:34:21.913Z,5.93
2023-02-05T21:36:50.951Z,5.85
2023-02-05T21:39:22.185Z,5.80
2023-02-05T21:41:54.322Z,5.78
2023-02-05T21:44:22.643Z,5.79
2023-02-05T21:46:50.258Z,5.70
2023-02-05T21:49:17.850Z,5.81
2023-02-05T21:51:45.157Z,5.63
2023-02-05T21:54:12.636Z,5.62
2023-02-05T21:56:41.361Z,5.57
2023-02-05T21:59:17.526Z,5.58
2023-02-05T22:01:45.248Z,5.50
2023-02-05T22:04:15.176Z,5.47
2023-02-05T22:06:44.332Z,5.50
2023-02-05T22:09:14.302Z,5.50
2023-02-05T22:11:42.466Z,5.66
2023-02-05T22:14:10.789Z,5.71
2023-02-05T22:16:38.540Z,5.53
2023-02-05T22:19:08.936Z,5.63
2023-02-05T22:21:39.531Z,5.50
2023-02-05T22:24:10.921Z,5.54
2023-02-05T22:26:39.619Z,5.59
2023-02-05T22:29:09.140Z,5.45
2023-02-05T22:31:37.034Z,5.44
2023-02-05T22:34:05.263Z,5.45
2023-02-05T22:36:34.757Z,5.53
2023-02-05T22:39:02.606Z,5.58
2023-02-05T22:41:46.881Z,5.62
2023-02-05T22:44:14.333Z,5.67
2023-02-05T22:46:42.716Z,5.50
2023-02-05T22:49:11.868Z,5.67
2023-02-05T22:51:40.505Z,5.58
2023-02-05T22:54:10.983Z,5.43
2023-02-05T22:56:38.940Z,5.35
2023-02-05T22:59:06.754Z,5.61
2023-02-05T23:01:36.071Z,5.56
2023-02-05T23:04:05.624Z,5.39
2023-02-05T23:06:36.159Z,5.16
2023-02-05T23:09:12.616Z,5.02
2023-02-05T23:11:40.464Z,5.03
2023-02-05T23:14:08.845Z,5.09
2023-02-05T23:16:39.755Z,4.98
2023-02-05T23:19:11.190Z,5.19
2023-02-05T23:21:40.569Z,5.21
2023-02-05T23:24:08.772Z,5.43
2023-02-05T23:26:41.910Z,5.35
2023-02-05T23:29:11.904Z,5.30
2023-02-05T23:31:39.446Z,5.35
2023-02-05T23:34:07.334Z,5.14
2023-02-05T23:36:34.828Z,5.29
2023-02-05T23:39:02.641Z,5.16
2023-02-05T23:41:36.358Z,5.15
2023-02-05T23:44:18.927Z,5.08
2023-02-05T23:46:48.255Z,4.99
2023-02-05T23:49:16.827Z,5.10
2023-02-05T23:51:44.411Z,5.20
2023-02-05T23:54:11.962Z,5.04
2023-02-05T23:56:40.077Z,5.04
2023-02-05T23:59:09.393Z,4.88
